sensor_id;sensor_type;location;lat;lon;timestamp;pressure;altitude;pressure_sealevel;temperature;humidity
20696;BME280;10507;52.754;13.040;2023-05-20T00:00:14;102138.72;;;10.30;90.85
20696;BME280;10507;52.754;13.040;2023-05-20T00:02:43;102143.44;;;10.19;91.26
20696;BME280;10507;52.754;13.040;2023-05-20T00:05:14;102155.19;;;10.10;91.86
20696;BME280;10507;52.754;13.040;2023-05-20T00:07:43;102159.00;;;10.00;92.30
20696;BME280;10507;52.754;13.040;2023-05-20T00:10:11;102163.66;;;9.90;93.09
20696;BME280;10507;52.754;13.040;2023-05-20T00:12:39;102169.88;;;9.91;92.83
20696;BME280;10507;52.754;13.040;2023-05-20T00:15:08;102179.63;;;9.93;93.05
20696;BME280;10507;52.754;13.040;2023-05-20T00:17:37;102182.22;;;9.96;93.63
20696;BME280;10507;52.754;13.040;2023-05-20T00:20:06;102170.72;;;9.93;93.61
20696;BME280;10507;52.754;13.040;2023-05-20T00:22:34;102164.69;;;9.85;93.59
20696;BME280;10507;52.754;13.040;2023-05-20T00:25:04;102171.09;;;9.77;94.35
20696;BME280;10507;52.754;13.040;2023-05-20T00:27:32;102171.16;;;9.73;94.28
20696;BME280;10507;52.754;13.040;2023-05-20T00:30:00;102181.81;;;9.73;94.79
20696;BME280;10507;52.754;13.040;2023-05-20T00:32:28;102184.41;;;9.77;95.26
20696;BME280;10507;52.754;13.040;2023-05-20T00:34:56;102180.81;;;9.78;95.22
20696;BME280;10507;52.754;13.040;2023-05-20T00:37:24;102183.41;;;9.83;95.34
20696;BME280;10507;52.754;13.040;2023-05-20T00:39:52;102181.59;;;9.84;95.16
20696;BME280;10507;52.754;13.040;2023-05-20T00:42:23;102173.53;;;9.87;95.68
20696;BME280;10507;52.754;13.040;2023-05-20T00:44:51;102163.78;;;9.84;95.91
20696;BME280;10507;52.754;13.040;2023-05-20T00:47:21;102156.78;;;9.80;95.87
20696;BME280;10507;52.754;13.040;2023-05-20T00:49:50;102163.94;;;9.78;95.84
20696;BME280;10507;52.754;13.040;2023-05-20T00:52:18;102164.09;;;9.72;96.37
20696;BME280;10507;52.754;13.040;2023-05-20T00:54:48;102165.03;;;9.69;96.20
20696;BME280;10507;52.754;13.040;2023-05-20T00:57:18;102163.41;;;9.62;96.26
20696;BME280;10507;52.754;13.040;2023-05-20T00:59:47;102177.53;;;9.67;96.69
20696;BME280;10507;52.754;13.040;2023-05-20T01:02:15;102177.44;;;9.70;97.10
20696;BME280;10507;52.754;13.040;2023-05-20T01:04:44;102185.34;;;9.75;97.03
20696;BME280;10507;52.754;13.040;2023-05-20T01:07:14;102177.28;;;9.78;96.88
20696;BME280;10507;52.754;13.040;2023-05-20T01:09:43;102174.63;;;9.78;96.75
20696;BME280;10507;52.754;13.040;2023-05-20T01:12:15;102157.88;;;9.71;97.33
20696;BME280;10507;52.754;13.040;2023-05-20T01:14:49;102175.75;;;9.66;97.39
20696;BME280;10507;52.754;13.040;2023-05-20T01:17:19;102158.94;;;9.63;97.47
20696;BME280;10507;52.754;13.040;2023-05-20T01:19:47;102163.53;;;9.57;97.87
20696;BME280;10507;52.754;13.040;2023-05-20T01:22:16;102165.34;;;9.55;97.78
20696;BME280;10507;52.754;13.040;2023-05-20T01:24:45;102168.88;;;9.56;97.90
20696;BME280;10507;52.754;13.040;2023-05-20T01:27:14;102158.22;;;9.54;98.32
20696;BME280;10507;52.754;13.040;2023-05-20T01:29:42;102170.69;;;9.54;98.59
20696;BME280;10507;52.754;13.040;2023-05-20T01:32:14;102166.44;;;9.45;98.62
20696;BME280;10507;52.754;13.040;2023-05-20T01:34:47;102159.47;;;9.38;98.83
20696;BME280;10507;52.754;13.040;2023-05-20T01:37:17;102158.72;;;9.31;99.50
20696;BME280;10507;52.754;13.040;2023-05-20T01:39:48;102172.06;;;9.30;99.29
20696;BME280;10507;52.754;13.040;2023-05-20T01:42:17;102161.47;;;9.27;99.61
20696;BME280;10507;52.754;13.040;2023-05-20T01:44:46;102152.75;;;9.19;99.65
20696;BME280;10507;52.754;13.040;2023-05-20T01:47:14;102155.59;;;9.11;99.59
20696;BME280;10507;52.754;13.040;2023-05-20T01:49:42;102163.63;;;9.08;99.98
20696;BME280;10507;52.754;13.040;2023-05-20T01:52:11;102160.16;;;9.03;100.00
20696;BME280;10507;52.754;13.040;2023-05-20T01:54:39;102162.06;;;8.96;100.00
20696;BME280;10507;52.754;13.040;2023-05-20T01:57:09;102171.00;;;8.93;100.00
20696;BME280;10507;52.754;13.040;2023-05-20T01:59:36;102162.25;;;8.87;100.00
20696;BME280;10507;52.754;13.040;2023-05-20T02:02:05;102169.38;;;8.86;100.00
20696;BME280;10507;52.754;13.040;2023-05-20T02:04:33;102169.47;;;8.82;100.00
20696;BME280;10507;52.754;13.040;2023-05-20T02:07:02;102157.09;;;8.78;100.00
20696;BME280;10507;52.754;13.040;2023-05-20T02:09:30;102165.09;;;8.76;100.00
20696;BME280;10507;52.754;13.040;2023-05-20T02:11:58;102163.34;;;8.75;100.00
20696;BME280;10507;52.754;13.040;2023-05-20T02:14:27;102162.50;;;8.74;100.00
20696;BME280;10507;52.754;13.040;2023-05-20T02:16:55;102168.69;;;8.75;100.00
20696;BME280;10507;52.754;13.040;2023-05-20T02:19:23;102169.56;;;8.76;100.00
20696;BME280;10507;52.754;13.040;2023-05-20T02:21:51;102166.03;;;8.73;100.00
20696;BME280;10507;52.754;13.040;2023-05-20T02:24:19;102179.28;;;8.78;100.00
20696;BME280;10507;52.754;13.040;2023-05-20T02:26:47;102173.84;;;8.83;100.00
20696;BME280;10507;52.754;13.040;2023-05-20T02:29:16;102165.88;;;8.83;100.00
20696;BME280;10507;52.754;13.040;2023-05-20T02:31:46;102168.50;;;8.84;100.00
20696;BME280;10507;52.754;13.040;2023-05-20T02:34:16;102165.84;;;8.84;100.00
20696;BME280;10507;52.754;13.040;2023-05-20T02:36:44;102165.84;;;8.84;100.00
20696;BME280;10507;52.754;13.040;2023-05-20T02:39:12;102166.72;;;8.85;100.00
20696;BME280;10507;52.754;13.040;2023-05-20T02:41:41;102170.31;;;8.84;100.00
20696;BME280;10507;52.754;13.040;2023-05-20T02:44:09;102152.59;;;8.81;100.00
20696;BME280;10507;52.754;13.040;2023-05-20T02:46:36;102156.22;;;8.77;100.00
20696;BME280;10507;52.754;13.040;2023-05-20T02:49:06;102164.22;;;8.76;100.00
20696;BME280;10507;52.754;13.040;2023-05-20T02:51:34;102179.28;;;8.77;100.00
20696;BME280;10507;52.754;13.040;2023-05-20T02:54:02;102184.66;;;8.75;100.00
20696;BME280;10507;52.754;13.040;2023-05-20T02:56:30;102182.88;;;8.76;100.00
20696;BME280;10507;52.754;13.040;2023-05-20T02:58:58;102189.13;;;8.74;100.00
20696;BME280;10507;52.754;13.040;2023-05-20T03:01:26;102190.88;;;8.74;100.00
20696;BME280;10507;52.754;13.040;2023-05-20T03:03:55;102194.44;;;8.74;100.00
20696;BME280;10507;52.754;13.040;2023-05-20T03:06:24;102198.00;;;8.73;100.00
20696;BME280;10507;52.754;13.040;2023-05-20T03:08:52;102197.94;;;8.77;100.00
20696;BME280;10507;52.754;13.040;2023-05-20T03:11:20;102205.91;;;8.77;100.00
20696;BME280;10507;52.754;13.040;2023-05-20T03:13:48;102190.78;;;8.79;100.00
20696;BME280;10507;52.754;13.040;2023-05-20T03:16:16;102192.56;;;8.80;100.00
20696;BME280;10507;52.754;13.040;2023-05-20T03:18:44;102187.22;;;8.81;100.00
20696;BME280;10507;52.754;13.040;2023-05-20T03:21:12;102181.00;;;8.81;100.00
20696;BME280;10507;52.754;13.040;2023-05-20T03:23:42;102185.34;;;8.88;100.00
20696;BME280;10507;52.754;13.040;2023-05-20T03:26:10;102193.19;;;8.94;100.00
20696;BME280;10507;52.754;13.040;2023-05-20T03:28:38;102184.25;;;8.97;100.00
20696;BME280;10507;52.754;13.040;2023-05-20T03:31:05;102175.28;;;9.02;100.00
20696;BME280;10507;52.754;13.040;2023-05-20T03:33:33;102177.00;;;9.06;100.00
20696;BME280;10507;52.754;13.040;2023-05-20T03:36:02;102169.84;;;9.08;100.00
20696;BME280;10507;52.754;13.040;2023-05-20T03:38:29;102182.16;;;9.14;100.00
20696;BME280;10507;52.754;13.040;2023-05-20T03:40:59;102188.22;;;9.24;100.00
20696;BME280;10507;52.754;13.040;2023-05-20T03:43:27;102181.84;;;9.29;100.00
20696;BME280;10507;52.754;13.040;2023-05-20T03:45:55;102193.19;;;9.39;100.00
20696;BME280;10507;52.754;13.040;2023-05-20T03:48:22;102179.75;;;9.45;100.00
20696;BME280;10507;52.754;13.040;2023-05-20T03:50:50;102180.59;;;9.49;100.00
20696;BME280;10507;52.754;13.040;2023-05-20T03:53:18;102181.22;;;9.60;100.00
20696;BME280;10507;52.754;13.040;2023-05-20T03:55:46;102203.09;;;9.77;100.00
20696;BME280;10507;52.754;13.040;2023-05-20T03:58:16;102201.00;;;9.90;100.00
20696;BME280;10507;52.754;13.040;2023-05-20T04:00:46;102192.78;;;10.01;100.00
20696;BME280;10507;52.754;13.040;2023-05-20T04:03:14;102181.00;;;10.10;100.00
20696;BME280;10507;52.754;13.040;2023-05-20T04:05:42;102180.69;;;10.22;99.60
20696;BME280;10507;52.754;13.040;2023-05-20T04:08:10;102171.69;;;10.28;99.25
20696;BME280;10507;52.754;13.040;2023-05-20T04:10:40;102174.97;;;10.40;98.91
20696;BME280;10507;52.754;13.040;2023-05-20T04:13:09;102165.03;;;10.47;98.30
20696;BME280;10507;52.754;13.040;2023-05-20T04:15:39;102163.81;;;10.59;98.22
20696;BME280;10507;52.754;13.040;2023-05-20T04:18:07;102190.06;;;10.77;97.96
20696;BME280;10507;52.754;13.040;2023-05-20T04:20:35;102181.53;;;10.96;96.48
20696;BME280;10507;52.754;13.040;2023-05-20T04:23:03;102157.22;;;11.05;95.79
20696;BME280;10507;52.754;13.040;2023-05-20T04:25:31;102165.75;;;11.19;96.38
20696;BME280;10507;52.754;13.040;2023-05-20T04:28:00;102141.59;;;11.22;94.80
20696;BME280;10507;52.754;13.040;2023-05-20T04:30:28;102168.38;;;11.52;94.21
20696;BME280;10507;52.754;13.040;2023-05-20T04:33:00;102141.38;;;11.61;93.33
20696;BME280;10507;52.754;13.040;2023-05-20T04:35:29;102121.41;;;11.72;93.37
20696;BME280;10507;52.754;13.040;2023-05-20T04:37:57;102129.06;;;11.84;92.17
20696;BME280;10507;52.754;13.040;2023-05-20T04:40:25;102147.25;;;12.02;92.34
20696;BME280;10507;52.754;13.040;2023-05-20T04:42:53;102247.53;;;13.02;90.58
20696;BME280;10507;52.754;13.040;2023-05-20T04:45:21;102172.00;;;13.86;86.52
20696;BME280;10507;52.754;13.040;2023-05-20T04:47:50;101983.88;;;14.32;83.07
20696;BME280;10507;52.754;13.040;2023-05-20T04:50:20;102091.53;;;15.30;81.02
20696;BME280;10507;52.754;13.040;2023-05-20T04:52:48;101902.25;;;15.66;77.69
20696;BME280;10507;52.754;13.040;2023-05-20T04:55:16;101906.69;;;15.84;77.05
20696;BME280;10507;52.754;13.040;2023-05-20T04:57:45;101718.97;;;15.35;77.68
20696;BME280;10507;52.754;13.040;2023-05-20T05:00:13;101767.75;;;15.12;78.74
20696;BME280;10507;52.754;13.040;2023-05-20T05:02:41;101760.22;;;15.01;79.39
20696;BME280;10507;52.754;13.040;2023-05-20T05:05:09;101675.41;;;14.76;79.63
20696;BME280;10507;52.754;13.040;2023-05-20T05:07:38;101695.78;;;14.27;81.78
20696;BME280;10507;52.754;13.040;2023-05-20T05:10:07;101707.19;;;13.94;82.69
20696;BME280;10507;52.754;13.040;2023-05-20T05:12:36;101724.13;;;13.57;84.26
20696;BME280;10507;52.754;13.040;2023-05-20T05:15:04;101747.56;;;13.33;84.91
20696;BME280;10507;52.754;13.040;2023-05-20T05:17:32;101747.19;;;12.77;86.33
20696;BME280;10507;52.754;13.040;2023-05-20T05:20:00;101857.88;;;12.79;87.73
20696;BME280;10507;52.754;13.040;2023-05-20T05:22:28;101843.78;;;12.52;88.98
20696;BME280;10507;52.754;13.040;2023-05-20T05:24:57;101854.78;;;12.44;89.65
20696;BME280;10507;52.754;13.040;2023-05-20T05:27:25;101916.59;;;12.40;91.02
20696;BME280;10507;52.754;13.040;2023-05-20T05:29:53;101917.19;;;12.46;89.61
20696;BME280;10507;52.754;13.040;2023-05-20T05:32:21;101940.72;;;12.38;91.78
20696;BME280;10507;52.754;13.040;2023-05-20T05:34:49;101931.34;;;12.26;91.40
20696;BME280;10507;52.754;13.040;2023-05-20T05:37:17;101959.81;;;12.29;92.46
20696;BME280;10507;52.754;13.040;2023-05-20T05:39:45;101947.41;;;12.26;91.11
20696;BME280;10507;52.754;13.040;2023-05-20T05:42:14;101977.78;;;12.25;92.38
20696;BME280;10507;52.754;13.040;2023-05-20T05:44:42;101997.22;;;12.31;92.00
20696;BME280;10507;52.754;13.040;2023-05-20T05:47:11;102009.53;;;12.36;92.39
20696;BME280;10507;52.754;13.040;2023-05-20T05:49:39;101995.66;;;12.25;92.18
20696;BME280;10507;52.754;13.040;2023-05-20T05:52:07;102021.47;;;12.27;92.58
20696;BME280;10507;52.754;13.040;2023-05-20T05:54:37;102028.47;;;12.32;92.90
20696;BME280;10507;52.754;13.040;2023-05-20T05:57:06;101991.66;;;12.12;93.23
20696;BME280;10507;52.754;13.040;2023-05-20T05:59:36;102014.94;;;12.10;93.58
20696;BME280;10507;52.754;13.040;2023-05-20T06:02:05;102049.53;;;12.16;93.60
20696;BME280;10507;52.754;13.040;2023-05-20T06:04:32;102075.50;;;12.14;93.96
20696;BME280;10507;52.754;13.040;2023-05-20T06:07:00;102067.41;;;12.15;93.98
20696;BME280;10507;52.754;13.040;2023-05-20T06:09:28;102088.03;;;12.12;93.87
20696;BME280;10507;52.754;13.040;2023-05-20T06:11:56;102085.50;;;12.09;94.37
20696;BME280;10507;52.754;13.040;2023-05-20T06:14:28;102081.03;;;12.07;94.69
20696;BME280;10507;52.754;13.040;2023-05-20T06:16:57;102110.34;;;12.12;93.77
20696;BME280;10507;52.754;13.040;2023-05-20T06:19:25;102118.38;;;12.12;94.35
20696;BME280;10507;52.754;13.040;2023-05-20T06:21:53;102122.75;;;12.15;94.39
20696;BME280;10507;52.754;13.040;2023-05-20T06:24:20;102099.91;;;12.04;94.68
20696;BME280;10507;52.754;13.040;2023-05-20T06:26:50;102151.28;;;12.16;95.33
20696;BME280;10507;52.754;13.040;2023-05-20T06:29:18;102145.00;;;12.17;94.83
20696;BME280;10507;52.754;13.040;2023-05-20T06:31:46;102122.03;;;12.10;95.21
20696;BME280;10507;52.754;13.040;2023-05-20T06:34:15;102148.50;;;12.19;93.94
20696;BME280;10507;52.754;13.040;2023-05-20T06:36:43;102142.44;;;12.14;95.28
20696;BME280;10507;52.754;13.040;2023-05-20T06:39:11;102173.94;;;12.32;95.00
20696;BME280;10507;52.754;13.040;2023-05-20T06:41:38;102172.06;;;12.36;94.66
20696;BME280;10507;52.754;13.040;2023-05-20T06:44:06;102204.47;;;12.55;94.43
20696;BME280;10507;52.754;13.040;2023-05-20T06:46:34;102213.53;;;12.77;93.77
20696;BME280;10507;52.754;13.040;2023-05-20T06:49:02;102160.00;;;12.76;92.69
20696;BME280;10507;52.754;13.040;2023-05-20T06:51:31;102160.75;;;12.79;93.03
20696;BME280;10507;52.754;13.040;2023-05-20T06:53:59;102181.00;;;12.88;93.07
20696;BME280;10507;52.754;13.040;2023-05-20T06:56:27;102170.09;;;12.93;92.55
20696;BME280;10507;52.754;13.040;2023-05-20T06:58:55;102190.19;;;13.06;92.46
20696;BME280;10507;52.754;13.040;2023-05-20T07:01:23;102148.22;;;13.05;91.19
20696;BME280;10507;52.754;13.040;2023-05-20T07:03:50;102155.38;;;13.04;91.34
20696;BME280;10507;52.754;13.040;2023-05-20T07:06:18;102180.00;;;13.16;92.29
20696;BME280;10507;52.754;13.040;2023-05-20T07:08:47;102206.91;;;13.39;91.37
20696;BME280;10507;52.754;13.040;2023-05-20T07:11:15;102192.97;;;13.53;90.82
20696;BME280;10507;52.754;13.040;2023-05-20T07:13:43;102178.34;;;13.62;90.35
20696;BME280;10507;52.754;13.040;2023-05-20T07:16:11;102156.38;;;13.74;89.38
20696;BME280;10507;52.754;13.040;2023-05-20T07:18:39;102180.94;;;13.87;90.06
20696;BME280;10507;52.754;13.040;2023-05-20T07:21:07;102138.84;;;13.87;89.31
20696;BME280;10507;52.754;13.040;2023-05-20T07:23:35;102062.13;;;13.60;88.88
20696;BME280;10507;52.754;13.040;2023-05-20T07:26:04;102148.13;;;13.79;89.85
20696;BME280;10507;52.754;13.040;2023-05-20T07:28:32;102164.66;;;13.91;89.59
20696;BME280;10507;52.754;13.040;2023-05-20T07:31:01;102182.16;;;14.02;89.07
20696;BME280;10507;52.754;13.040;2023-05-20T07:33:29;102135.34;;;14.07;88.71
20696;BME280;10507;52.754;13.040;2023-05-20T07:35:57;102067.69;;;13.99;88.12
20696;BME280;10507;52.754;13.040;2023-05-20T07:38:25;102133.53;;;14.08;88.43
20696;BME280;10507;52.754;13.040;2023-05-20T07:40:53;102076.66;;;13.98;88.43
20696;BME280;10507;52.754;13.040;2023-05-20T07:43:22;102065.34;;;13.90;88.43
20696;BME280;10507;52.754;13.040;2023-05-20T07:45:50;102091.28;;;13.91;88.96
20696;BME280;10507;52.754;13.040;2023-05-20T07:48:18;102127.50;;;14.03;89.15
20696;BME280;10507;52.754;13.040;2023-05-20T07:50:46;102151.56;;;14.06;89.20
20696;BME280;10507;52.754;13.040;2023-05-20T07:53:13;102145.03;;;14.11;89.04
20696;BME280;10507;52.754;13.040;2023-05-20T07:55:41;102127.31;;;14.07;88.82
20696;BME280;10507;52.754;13.040;2023-05-20T07:58:09;102121.00;;;14.08;89.18
20696;BME280;10507;52.754;13.040;2023-05-20T08:00:38;102071.22;;;14.00;88.27
20696;BME280;10507;52.754;13.040;2023-05-20T08:03:06;102152.09;;;14.14;89.12
20696;BME280;10507;52.754;13.040;2023-05-20T08:05:35;102141.59;;;14.30;88.38
20696;BME280;10507;52.754;13.040;2023-05-20T08:08:04;102119.91;;;14.34;88.54
20696;BME280;10507;52.754;13.040;2023-05-20T08:10:32;102150.63;;;14.49;87.98
20696;BME280;10507;52.754;13.040;2023-05-20T08:13:00;102126.91;;;14.61;87.60
20696;BME280;10507;52.754;13.040;2023-05-20T08:15:27;102150.22;;;14.81;87.22
20696;BME280;10507;52.754;13.040;2023-05-20T08:17:57;102159.16;;;15.02;86.67
20696;BME280;10507;52.754;13.040;2023-05-20T08:20:25;102060.66;;;14.99;86.19
20696;BME280;10507;52.754;13.040;2023-05-20T08:22:53;102165.84;;;15.32;86.00
20696;BME280;10507;52.754;13.040;2023-05-20T08:25:24;102160.19;;;15.57;85.07
20696;BME280;10507;52.754;13.040;2023-05-20T08:27:52;102108.47;;;15.70;83.96
20696;BME280;10507;52.754;13.040;2023-05-20T08:30:19;102041.59;;;15.79;82.99
20696;BME280;10507;52.754;13.040;2023-05-20T08:32:47;102085.03;;;15.91;83.81
20696;BME280;10507;52.754;13.040;2023-05-20T08:35:17;102040.28;;;15.88;83.60
20696;BME280;10507;52.754;13.040;2023-05-20T08:37:47;101973.81;;;15.89;82.80
20696;BME280;10507;52.754;13.040;2023-05-20T08:40:16;102011.84;;;16.00;83.00
20696;BME280;10507;52.754;13.040;2023-05-20T08:42:48;102016.69;;;16.28;82.08
20696;BME280;10507;52.754;13.040;2023-05-20T08:45:17;102030.91;;;16.48;81.16
20696;BME280;10507;52.754;13.040;2023-05-20T08:47:45;101991.03;;;16.54;81.08
20696;BME280;10507;52.754;13.040;2023-05-20T08:50:14;102006.38;;;16.70;80.48
20696;BME280;10507;52.754;13.040;2023-05-20T08:52:45;102003.50;;;16.90;80.45
20696;BME280;10507;52.754;13.040;2023-05-20T08:55:16;101845.00;;;16.78;79.00
20696;BME280;10507;52.754;13.040;2023-05-20T08:57:49;101830.03;;;16.72;79.35
20696;BME280;10507;52.754;13.040;2023-05-20T09:00:17;101809.44;;;16.87;78.33
20696;BME280;10507;52.754;13.040;2023-05-20T09:02:46;101829.72;;;16.94;78.71
20696;BME280;10507;52.754;13.040;2023-05-20T09:05:14;101827.44;;;17.02;78.17
20696;BME280;10507;52.754;13.040;2023-05-20T09:07:43;101805.03;;;17.16;77.63
20696;BME280;10507;52.754;13.040;2023-05-20T09:10:12;101804.50;;;16.95;78.85
20696;BME280;10507;52.754;13.040;2023-05-20T09:12:42;101844.38;;;17.20;78.72
20696;BME280;10507;52.754;13.040;2023-05-20T09:15:10;101834.13;;;17.41;77.95
20696;BME280;10507;52.754;13.040;2023-05-20T09:17:38;101845.38;;;17.64;76.88
20696;BME280;10507;52.754;13.040;2023-05-20T09:20:08;101920.00;;;18.11;76.15
20696;BME280;10507;52.754;13.040;2023-05-20T09:22:37;101781.56;;;18.20;75.05
20696;BME280;10507;52.754;13.040;2023-05-20T09:25:08;101708.34;;;17.82;75.92
20696;BME280;10507;52.754;13.040;2023-05-20T09:27:38;101804.63;;;18.26;75.18
20696;BME280;10507;52.754;13.040;2023-05-20T09:30:07;101546.19;;;17.55;75.41
20696;BME280;10507;52.754;13.040;2023-05-20T09:32:38;101655.56;;;17.76;75.14
20696;BME280;10507;52.754;13.040;2023-05-20T09:35:06;101506.50;;;17.42;75.50
20696;BME280;10507;52.754;13.040;2023-05-20T09:37:35;101569.75;;;17.38;75.74
20696;BME280;10507;52.754;13.040;2023-05-20T09:40:04;101572.28;;;17.27;75.93
20696;BME280;10507;52.754;13.040;2023-05-20T09:42:42;101563.13;;;17.30;76.33
20696;BME280;10507;52.754;13.040;2023-05-20T09:45:10;101708.81;;;17.74;76.27
20696;BME280;10507;52.754;13.040;2023-05-20T09:47:38;101598.44;;;17.68;75.10
20696;BME280;10507;52.754;13.040;2023-05-20T09:50:08;101657.47;;;17.89;75.57
20696;BME280;10507;52.754;13.040;2023-05-20T09:52:36;101785.97;;;18.50;74.93
20696;BME280;10507;52.754;13.040;2023-05-20T09:55:06;101758.56;;;18.83;73.75
20696;BME280;10507;52.754;13.040;2023-05-20T09:57:37;101615.94;;;18.71;72.50
20696;BME280;10507;52.754;13.040;2023-05-20T10:00:09;101564.50;;;18.58;73.01
20696;BME280;10507;52.754;13.040;2023-05-20T10:02:42;101637.97;;;19.05;72.13
20696;BME280;10507;52.754;13.040;2023-05-20T10:05:15;101511.19;;;18.73;72.36
20696;BME280;10507;52.754;13.040;2023-05-20T10:08:13;101640.72;;;19.30;71.08
20696;BME280;10507;52.754;13.040;2023-05-20T10:10:49;101462.88;;;19.18;70.07
20696;BME280;10507;52.754;13.040;2023-05-20T10:13:47;101382.22;;;18.61;71.79
20696;BME280;10507;52.754;13.040;2023-05-20T10:16:25;101480.16;;;18.79;71.43
20696;BME280;10507;52.754;13.040;2023-05-20T10:19:04;101429.97;;;18.36;73.10
20696;BME280;10507;52.754;13.040;2023-05-20T10:21:39;101399.53;;;18.20;73.53
20696;BME280;10507;52.754;13.040;2023-05-20T10:24:09;101378.22;;;18.02;73.22
20696;BME280;10507;52.754;13.040;2023-05-20T10:26:38;101413.00;;;17.81;74.92
20696;BME280;10507;52.754;13.040;2023-05-20T10:29:17;101423.25;;;17.76;75.22
20696;BME280;10507;52.754;13.040;2023-05-20T10:31:48;101464.63;;;17.77;75.61
20696;BME280;10507;52.754;13.040;2023-05-20T10:34:18;101422.22;;;17.92;75.09
20696;BME280;10507;52.754;13.040;2023-05-20T10:36:56;101536.22;;;18.24;74.44
20696;BME280;10507;52.754;13.040;2023-05-20T10:39:25;101511.34;;;18.32;74.51
20696;BME280;10507;52.754;13.040;2023-05-20T10:42:05;101407.09;;;18.02;74.60
20696;BME280;10507;52.754;13.040;2023-05-20T10:44:42;101567.09;;;18.47;74.49
20696;BME280;10507;52.754;13.040;2023-05-20T10:47:10;101428.75;;;18.53;73.25
20696;BME280;10507;52.754;13.040;2023-05-20T10:49:44;101505.25;;;18.81;72.84
20696;BME280;10507;52.754;13.040;2023-05-20T10:52:13;101439.22;;;18.70;72.92
20696;BME280;10507;52.754;13.040;2023-05-20T10:54:43;101490.41;;;18.74;73.46
20696;BME280;10507;52.754;13.040;2023-05-20T10:57:14;101336.94;;;18.39;73.17
20696;BME280;10507;52.754;13.040;2023-05-20T10:59:43;101506.78;;;18.85;73.18
20696;BME280;10507;52.754;13.040;2023-05-20T11:02:17;101427.44;;;18.72;73.03
20696;BME280;10507;52.754;13.040;2023-05-20T11:04:45;101538.06;;;19.02;73.60
20696;BME280;10507;52.754;13.040;2023-05-20T11:07:24;101370.03;;;18.92;72.86
20696;BME280;10507;52.754;13.040;2023-05-20T11:09:52;101500.00;;;19.29;72.47
20696;BME280;10507;52.754;13.040;2023-05-20T11:12:23;101537.50;;;19.59;71.88
20696;BME280;10507;52.754;13.040;2023-05-20T11:14:53;101429.22;;;19.46;71.40
20696;BME280;10507;52.754;13.040;2023-05-20T11:17:21;101328.78;;;19.25;71.52
20696;BME280;10507;52.754;13.040;2023-05-20T11:19:49;101350.44;;;19.01;72.64
20696;BME280;10507;52.754;13.040;2023-05-20T11:22:18;101451.59;;;19.24;72.82
20696;BME280;10507;52.754;13.040;2023-05-20T11:24:46;101418.47;;;19.21;72.64
20696;BME280;10507;52.754;13.040;2023-05-20T11:27:13;101419.81;;;19.15;72.68
20696;BME280;10507;52.754;13.040;2023-05-20T11:29:41;101276.59;;;18.75;73.08
20696;BME280;10507;52.754;13.040;2023-05-20T11:32:11;101369.00;;;18.82;73.81
20696;BME280;10507;52.754;13.040;2023-05-20T11:34:39;101380.03;;;18.79;73.87
20696;BME280;10507;52.754;13.040;2023-05-20T11:37:09;101411.88;;;18.88;74.32
20696;BME280;10507;52.754;13.040;2023-05-20T11:39:37;101388.72;;;18.58;75.14
20696;BME280;10507;52.754;13.040;2023-05-20T11:42:05;101496.03;;;18.96;74.42
20696;BME280;10507;52.754;13.040;2023-05-20T11:44:33;101509.75;;;19.31;73.54
20696;BME280;10507;52.754;13.040;2023-05-20T11:47:02;101373.13;;;19.11;73.17
20696;BME280;10507;52.754;13.040;2023-05-20T11:49:38;101435.31;;;19.37;73.03
20696;BME280;10507;52.754;13.040;2023-05-20T11:52:07;101361.91;;;19.29;72.45
20696;BME280;10507;52.754;13.040;2023-05-20T11:54:35;101384.38;;;19.42;72.15
20696;BME280;10507;52.754;13.040;2023-05-20T11:57:03;101352.38;;;19.23;72.91
20696;BME280;10507;52.754;13.040;2023-05-20T11:59:32;101464.47;;;19.58;73.29
20696;BME280;10507;52.754;13.040;2023-05-20T12:02:01;101513.22;;;19.94;72.30
20696;BME280;10507;52.754;13.040;2023-05-20T12:04:29;101310.94;;;19.58;72.01
20696;BME280;10507;52.754;13.040;2023-05-20T12:06:58;101271.94;;;19.37;72.06
20696;BME280;10507;52.754;13.040;2023-05-20T12:09:26;101379.16;;;19.63;72.26
20696;BME280;10507;52.754;13.040;2023-05-20T12:11:54;101301.00;;;19.35;72.46
20696;BME280;10507;52.754;13.040;2023-05-20T12:14:22;101289.38;;;19.21;72.80
20696;BME280;10507;52.754;13.040;2023-05-20T12:16:50;101290.72;;;19.16;72.81
20696;BME280;10507;52.754;13.040;2023-05-20T12:19:19;101382.13;;;19.36;73.63
20696;BME280;10507;52.754;13.040;2023-05-20T12:21:47;101390.09;;;19.62;72.52
20696;BME280;10507;52.754;13.040;2023-05-20T12:24:16;101342.28;;;19.49;72.52
20696;BME280;10507;52.754;13.040;2023-05-20T12:26:44;101359.59;;;19.60;72.25
20696;BME280;10507;52.754;13.040;2023-05-20T12:29:12;101380.25;;;19.61;72.82
20696;BME280;10507;52.754;13.040;2023-05-20T12:31:40;101316.91;;;19.50;71.71
20696;BME280;10507;52.754;13.040;2023-05-20T12:34:07;101268.38;;;19.36;72.40
20696;BME280;10507;52.754;13.040;2023-05-20T12:36:35;101274.00;;;19.22;73.11
20696;BME280;10507;52.754;13.040;2023-05-20T12:39:03;101277.13;;;19.04;73.65
20696;BME280;10507;52.754;13.040;2023-05-20T12:41:33;101385.19;;;19.31;73.75
20696;BME280;10507;52.754;13.040;2023-05-20T12:44:01;101356.88;;;19.36;73.11
20696;BME280;10507;52.754;13.040;2023-05-20T12:46:28;101396.84;;;19.69;72.70
20696;BME280;10507;52.754;13.040;2023-05-20T12:48:56;101325.78;;;19.52;72.71